Kilbourn, Iowa
Current Conditions -  °F | °C
As of 8:55 AM on Saturday 20 Dec 2014 (Local Time) from KFFL Reporting Station
Haze Haze  
Wind Chill: 26°   Ceiling: 700
Heat Index: 32°   Visibility: 3mi
Dew Point: 28°   Wind: 7mph
Humidity: 87%   Direction: 160°SSE
Pressure: 30.22"   Gusts: NA
Location:  40.8549°N, 91.9505°W
Report Text: KFFL 201455Z AUTO 16006KT 3SM BR BKN007 OVC030 M00/M02 A3022 RMK AO2
Loading
Personal Weather Stations






























Interactive Weather Map New forecast layout! Learn more

10-Day Weather Forecast

Advertisements
Track Severe Weather on mobile